Manville, South Carolina
Current Conditions -  °F | °C
As of 1:15 PM on Monday 26 Jan 2015 (Local Time) from KHVS Reporting Station
Overcast Overcast  
Wind Chill: 55°   Ceiling: 4200
Heat Index: 55°   Visibility: 10mi
Dew Point: 36°   Wind: 7mph
Humidity: 47%   Direction: 280°W
Pressure: 29.61"   Gusts: NA
Location:  34.2324°N, 80.2824°W
Report Text: KHVS 261815Z AUTO 28006KT 10SM SCT033 BKN042 OVC060 13/02 A2961 RMK AO2
Loading
Personal Weather Stations






























Interactive Weather Map New forecast layout! Learn more

10-Day Weather Forecast

Advertisements
Track Severe Weather on mobile